Time;durP1;ratioP1;P1;durP2;ratioP2;P2;SDS_P1;SDS_P2;PMS_P1;PMS_P2;Temp;Humidity;BMP_temperature;BMP_pressure;BME280_temperature;BME280_humidity;BME280_pressure;Samples;Min_cycle;Max_cycle;Signal;HPM_P1;HPM_P2
2021/08/21 00:01:40;;;;;;;16.55;8.77;;;20.10;99.90;;;;;;5013800;28;20172;-82
2021/08/21 00:04:09;;;;;;;16.55;8.00;;;20.20;99.90;;;;;;5015236;28;20683;-81
2021/08/21 00:06:35;;;;;;;9.60;7.97;;;20.20;99.90;;;;;;5013734;28;20193;-82
2021/08/21 00:09:01;;;;;;;11.65;7.47;;;20.00;99.90;;;;;;5015183;28;20661;-82
2021/08/21 00:11:27;;;;;;;9.73;8.73;;;19.90;99.90;;;;;;5014985;28;20640;-82
2021/08/21 00:13:52;;;;;;;8.50;7.60;;;19.80;99.90;;;;;;5015090;28;20176;-82
2021/08/21 00:16:18;;;;;;;10.38;7.43;;;19.70;99.90;;;;;;5014964;28;20238;-82
2021/08/21 00:18:43;;;;;;;12.85;7.93;;;19.70;99.90;;;;;;5015067;28;20164;-82
2021/08/21 00:21:13;;;;;;;14.07;8.25;;;19.50;99.90;;;;;;5014728;28;20164;-82
2021/08/21 00:23:40;;;;;;;9.73;7.30;;;19.40;99.90;;;;;;5013855;28;20178;-82
2021/08/21 00:26:05;;;;;;;10.70;8.07;;;19.50;99.90;;;;;;5013292;28;20193;-82
2021/08/21 00:28:31;;;;;;;11.50;8.95;;;19.60;99.90;;;;;;5014477;28;20169;-82
2021/08/21 00:30:57;;;;;;;11.13;8.13;;;19.60;99.90;;;;;;5013511;28;20219;-83
2021/08/21 00:33:23;;;;;;;8.40;7.40;;;19.40;99.90;;;;;;5013407;28;20176;-82
2021/08/21 00:35:49;;;;;;;15.80;7.78;;;19.40;99.90;;;;;;5012959;28;20778;-82
2021/08/21 00:38:15;;;;;;;9.15;8.32;;;19.40;99.90;;;;;;5014184;28;20173;-82
2021/08/21 00:40:40;;;;;;;9.93;7.32;;;19.20;99.90;;;;;;5013473;28;20656;-82
2021/08/21 00:43:06;;;;;;;13.48;8.45;;;19.10;99.90;;;;;;5014262;28;20640;-82
2021/08/21 00:45:32;;;;;;;11.55;7.93;;;19.00;99.90;;;;;;5014403;28;20255;-82
2021/08/21 00:47:57;;;;;;;18.13;7.78;;;19.10;99.90;;;;;;5013148;28;20260;-82
2021/08/21 00:50:23;;;;;;;8.18;7.30;;;19.10;99.90;;;;;;5014509;28;20258;-82
2021/08/21 00:52:49;;;;;;;11.48;7.97;;;19.30;99.90;;;;;;5013485;28;20168;-82
2021/08/21 00:55:14;;;;;;;10.45;7.93;;;19.40;99.90;;;;;;5014361;28;20644;-82
2021/08/21 00:57:40;;;;;;;8.23;7.30;;;19.30;99.90;;;;;;5013694;28;20184;-82
2021/08/21 01:00:07;;;;;;;13.57;7.63;;;19.40;99.90;;;;;;5014232;28;20222;-82
2021/08/21 01:02:35;;;;;;;12.75;7.15;;;19.40;99.90;;;;;;5013096;28;20169;-82
2021/08/21 01:05:04;;;;;;;8.70;7.32;;;19.40;99.90;;;;;;5012815;28;20638;-82
2021/08/21 01:07:33;;;;;;;13.95;6.55;;;19.40;99.90;;;;;;5014112;28;20184;-82
2021/08/21 01:10:05;;;;;;;9.63;7.95;;;19.20;99.90;;;;;;5014420;28;20208;-82
2021/08/21 01:12:31;;;;;;;7.80;7.00;;;19.30;99.90;;;;;;5014062;28;20180;-82
2021/08/21 01:14:56;;;;;;;11.63;7.55;;;19.40;99.90;;;;;;5012700;28;20173;-82
2021/08/21 01:17:22;;;;;;;9.70;7.68;;;19.30;99.90;;;;;;5012548;28;20193;-82
2021/08/21 01:19:50;;;;;;;11.95;7.25;;;19.00;99.90;;;;;;5013839;28;20188;-82
2021/08/21 01:22:19;;;;;;;20.60;7.82;;;18.90;99.90;;;;;;5013447;28;20165;-82
2021/08/21 01:24:47;;;;;;;8.77;7.50;;;19.00;99.90;;;;;;5013904;28;20315;-83
2021/08/21 01:27:21;;;;;;;13.38;7.45;;;18.80;99.90;;;;;;5012197;28;20192;-82
2021/08/21 01:29:48;;;;;;;8.80;7.65;;;18.80;99.90;;;;;;5012136;28;20326;-82
2021/08/21 01:32:15;;;;;;;10.48;6.57;;;19.00;99.90;;;;;;5012307;28;20702;-83
2021/08/21 01:34:41;;;;;;;11.23;7.40;;;18.90;99.90;;;;;;5012228;28;20168;-82
2021/08/21 01:37:07;;;;;;;8.07;6.80;;;18.80;99.90;;;;;;5012268;28;20699;-82
2021/08/21 01:39:33;;;;;;;8.52;6.57;;;18.90;99.90;;;;;;5012408;28;20169;-83
2021/08/21 01:41:58;;;;;;;8.02;6.90;;;18.80;99.90;;;;;;5013523;28;20617;-82
2021/08/21 01:44:24;;;;;;;6.85;6.25;;;18.80;99.90;;;;;;5012819;28;20211;-82
2021/08/21 01:46:50;;;;;;;8.80;7.22;;;18.90;99.90;;;;;;5013192;28;20188;-82
2021/08/21 01:49:18;;;;;;;7.80;7.10;;;19.10;99.90;;;;;;5013458;28;20243;-82
2021/08/21 01:51:47;;;;;;;9.82;6.90;;;19.20;99.90;;;;;;5011629;28;20235;-82
2021/08/21 01:54:23;;;;;;;8.65;6.57;;;19.30;99.90;;;;;;5011689;28;20345;-82
2021/08/21 01:56:51;;;;;;;8.48;7.78;;;19.30;99.90;;;;;;5013040;28;20192;-82
2021/08/21 01:59:26;;;;;;;7.07;6.45;;;19.30;99.90;;;;;;5013085;28;20218;-82
2021/08/21 02:01:53;;;;;;;10.77;6.78;;;19.20;99.90;;;;;;5011951;28;20156;-82
2021/08/21 02:04:20;;;;;;;6.88;6.15;;;19.30;99.90;;;;;;5011925;28;20510;-82
2021/08/21 02:06:47;;;;;;;6.45;5.68;;;19.30;99.90;;;;;;5011555;28;20596;-83
2021/08/21 02:09:13;;;;;;;8.15;6.10;;;19.10;99.90;;;;;;5013080;28;20204;-82
2021/08/21 02:11:39;;;;;;;8.25;6.35;;;19.00;99.90;;;;;;5011718;28;20540;-82
2021/08/21 02:14:05;;;;;;;6.70;6.03;;;18.80;99.90;;;;;;5011811;28;20172;-82
2021/08/21 02:16:31;;;;;;;6.93;6.05;;;18.80;99.90;;;;;;5013075;28;20192;-82
2021/08/21 02:18:58;;;;;;;7.10;6.07;;;18.90;99.90;;;;;;5011534;28;20198;-82
2021/08/21 02:21:24;;;;;;;9.90;6.05;;;18.90;99.90;;;;;;5012694;28;20288;-82
2021/08/21 02:23:50;;;;;;;8.50;6.65;;;19.00;99.90;;;;;;5011583;28;20276;-83
2021/08/21 02:26:16;;;;;;;6.72;6.13;;;19.00;99.90;;;;;;5012491;28;20181;-82
2021/08/21 02:28:42;;;;;;;7.00;6.03;;;19.10;99.90;;;;;;5011518;28;20172;-82
2021/08/21 02:31:07;;;;;;;8.18;7.38;;;19.20;99.90;;;;;;5011491;28;20286;-82
2021/08/21 02:33:34;;;;;;;8.35;6.47;;;19.10;99.90;;;;;;5011415;28;20914;-83
2021/08/21 02:35:59;;;;;;;8.32;7.22;;;19.10;99.90;;;;;;5011316;28;20219;-82
2021/08/21 02:38:25;;;;;;;6.90;6.22;;;19.10;99.90;;;;;;5011650;28;20211;-82
2021/08/21 02:40:51;;;;;;;6.93;6.07;;;18.90;99.90;;;;;;5011147;28;20516;-82
2021/08/21 02:43:17;;;;;;;7.70;7.07;;;18.70;99.90;;;;;;5011394;28;20173;-82
2021/08/21 02:45:42;;;;;;;9.35;6.82;;;18.60;99.90;;;;;;5011414;28;20165;-83
2021/08/21 02:48:08;;;;;;;11.45;7.18;;;18.60;99.90;;;;;;5012795;28;20172;-83
2021/08/21 02:50:34;;;;;;;8.10;6.75;;;18.60;99.90;;;;;;5011440;28;20223;-82
2021/08/21 02:53:00;;;;;;;6.65;6.00;;;18.70;99.90;;;;;;5011558;28;20180;-83
2021/08/21 02:55:26;;;;;;;7.07;6.45;;;18.70;99.90;;;;;;5011586;28;20168;-82
2021/08/21 02:57:51;;;;;;;11.60;6.68;;;18.90;99.90;;;;;;5015970;28;20268;-82
2021/08/21 03:00:18;;;;;;;7.85;6.80;;;19.00;99.90;;;;;;5015418;28;20179;-82
2021/08/21 03:02:43;;;;;;;8.30;7.50;;;19.00;99.90;;;;;;5016612;28;20215;-83
2021/08/21 03:05:09;;;;;;;7.60;6.78;;;18.90;99.90;;;;;;5016216;28;20177;-81
2021/08/21 03:07:35;;;;;;;9.60;6.10;;;18.90;99.90;;;;;;5016706;28;20700;-82
2021/08/21 03:10:02;;;;;;;7.45;6.50;;;18.80;99.90;;;;;;5017430;28;20204;-82
2021/08/21 03:12:29;;;;;;;7.38;5.93;;;18.80;99.90;;;;;;5017040;28;20204;-82
2021/08/21 03:14:55;;;;;;;14.27;6.35;;;18.50;99.90;;;;;;5016377;28;20546;-82
2021/08/21 03:17:20;;;;;;;7.32;6.18;;;18.70;99.90;;;;;;5015591;28;20180;-81
2021/08/21 03:19:46;;;;;;;7.70;6.70;;;18.70;99.90;;;;;;5017985;28;20196;-82
2021/08/21 03:22:11;;;;;;;10.27;7.13;;;18.80;99.90;;;;;;5017627;28;20164;-81
2021/08/21 03:24:37;;;;;;;6.85;6.20;;;18.80;99.90;;;;;;5016971;28;20214;-82
2021/08/21 03:27:03;;;;;;;6.30;5.75;;;18.70;99.90;;;;;;5020443;28;20187;-83
2021/08/21 03:29:29;;;;;;;7.82;7.00;;;18.50;99.90;;;;;;5024344;28;20212;-83
2021/08/21 03:31:55;;;;;;;8.25;6.47;;;18.50;99.90;;;;;;5025880;28;20184;-83
2021/08/21 03:34:24;;;;;;;7.97;6.40;;;18.50;99.90;;;;;;5022183;28;21162;-83
2021/08/21 03:36:52;;;;;;;6.82;5.93;;;18.50;99.90;;;;;;5017727;28;20203;-81
2021/08/21 03:39:18;;;;;;;10.90;6.15;;;18.40;99.90;;;;;;5018684;28;20668;-82
2021/08/21 03:41:45;;;;;;;12.93;6.63;;;18.30;99.90;;;;;;5024008;28;20172;-83
2021/08/21 03:44:11;;;;;;;9.05;6.40;;;18.40;99.90;;;;;;5021044;28;20171;-81
2021/08/21 03:46:37;;;;;;;6.40;5.80;;;18.50;99.90;;;;;;5021341;28;20185;-81
2021/08/21 03:49:02;;;;;;;8.57;6.82;;;18.50;99.90;;;;;;5022754;28;20255;-81
2021/08/21 03:51:28;;;;;;;9.20;6.97;;;18.60;99.90;;;;;;5024193;28;20207;-81
2021/08/21 03:53:54;;;;;;;8.73;7.45;;;18.50;99.90;;;;;;5021933;28;20199;-81
2021/08/21 03:56:20;;;;;;;7.35;6.70;;;18.40;99.90;;;;;;5021411;28;20189;-83
2021/08/21 03:58:45;;;;;;;12.60;6.32;;;18.30;99.90;;;;;;5020470;28;20196;-82
2021/08/21 04:01:11;;;;;;;9.05;6.38;;;18.10;99.90;;;;;;5024611;28;20215;-82
2021/08/21 04:03:37;;;;;;;7.00;5.75;;;18.00;99.90;;;;;;5023054;28;20552;-82
2021/08/21 04:06:03;;;;;;;14.90;5.93;;;18.00;99.90;;;;;;5018763;28;20196;-82
2021/08/21 04:08:28;;;;;;;7.80;6.40;;;18.00;99.90;;;;;;5015977;28;20262;-83
2021/08/21 04:10:54;;;;;;;6.30;5.70;;;18.00;99.90;;;;;;5017407;28;20216;-83
2021/08/21 04:13:20;;;;;;;7.93;6.40;;;18.00;99.90;;;;;;5019844;28;20242;-83
2021/08/21 04:15:45;;;;;;;7.97;6.35;;;18.00;99.90;;;;;;5016237;28;20199;-82
2021/08/21 04:18:11;;;;;;;16.45;6.75;;;18.10;99.90;;;;;;5013585;28;20160;-83
2021/08/21 04:20:37;;;;;;;7.57;6.88;;;17.90;99.90;;;;;;5013542;28;20220;-83
2021/08/21 04:23:02;;;;;;;6.65;6.15;;;17.90;99.90;;;;;;5013743;28;20187;-82
2021/08/21 04:25:28;;;;;;;7.03;6.32;;;18.00;99.90;;;;;;5015083;28;20180;-82
2021/08/21 04:27:54;;;;;;;8.45;6.45;;;18.00;99.90;;;;;;5014475;28;20251;-82
2021/08/21 04:30:19;;;;;;;7.80;6.20;;;18.20;99.90;;;;;;5014840;28;20568;-82
2021/08/21 04:32:45;;;;;;;6.50;5.90;;;18.00;99.90;;;;;;5013532;28;20172;-83
2021/08/21 04:35:11;;;;;;;6.88;6.22;;;18.10;99.90;;;;;;5013344;28;20196;-82
2021/08/21 04:37:37;;;;;;;6.47;5.88;;;18.20;99.90;;;;;;5014102;28;20192;-82
2021/08/21 04:40:07;;;;;;;5.93;5.38;;;18.10;99.90;;;;;;5017958;28;20176;-83
2021/08/21 04:42:33;;;;;;;7.70;6.60;;;18.10;99.90;;;;;;5015162;28;20263;-82
2021/08/21 04:45:01;;;;;;;9.07;5.75;;;18.30;99.90;;;;;;5018203;28;20176;-82
2021/08/21 04:47:27;;;;;;;9.68;5.57;;;18.20;99.90;;;;;;5007141;28;20188;-83
2021/08/21 04:49:55;;;;;;;6.03;5.43;;;18.30;99.90;;;;;;5015125;28;20216;-82
2021/08/21 04:52:22;;;;;;;7.38;6.75;;;18.30;99.90;;;;;;5013986;28;20647;-83
2021/08/21 04:54:50;;;;;;;8.85;5.80;;;18.10;99.90;;;;;;5013552;28;20184;-83
2021/08/21 04:57:17;;;;;;;11.25;6.28;;;18.10;99.90;;;;;;5014695;28;20191;-83
2021/08/21 04:59:42;;;;;;;6.82;5.93;;;18.10;99.90;;;;;;5013857;28;20169;-83
2021/08/21 05:02:08;;;;;;;15.05;6.60;;;18.30;99.90;;;;;;5021060;28;20169;-83
2021/08/21 05:04:34;;;;;;;6.68;5.95;;;18.40;99.90;;;;;;5030033;28;20157;-82
2021/08/21 05:07:01;;;;;;;6.55;5.95;;;18.40;99.90;;;;;;5027422;28;20676;-83
2021/08/21 05:09:27;;;;;;;10.38;6.20;;;18.50;99.90;;;;;;5030110;28;20200;-83
2021/08/21 05:11:53;;;;;;;8.23;6.03;;;18.50;99.90;;;;;;5023785;28;20180;-80
2021/08/21 05:14:18;;;;;;;12.70;7.10;;;18.30;99.90;;;;;;5036223;28;20165;-82
2021/08/21 05:16:46;;;;;;;6.15;5.57;;;18.40;99.90;;;;;;5035419;28;20211;-82
2021/08/21 05:19:38;;;;;;;13.40;6.85;;;18.50;99.90;;;;;;5028772;28;20189;-81
2021/08/21 05:24:44;;;;;;;10.32;5.72;;;18.30;99.90;;;;;;5035209;28;20179;-83
2021/08/21 05:27:10;;;;;;;7.63;6.47;;;18.40;99.90;;;;;;5026861;28;20227;-82
2021/08/21 05:29:36;;;;;;;13.98;5.65;;;18.50;99.90;;;;;;5026384;28;20184;-82
2021/08/21 05:32:01;;;;;;;8.80;6.57;;;18.70;99.90;;;;;;5021153;28;20164;-82
2021/08/21 05:34:27;;;;;;;9.90;5.68;;;18.60;99.90;;;;;;5020625;28;20169;-83
2021/08/21 05:36:53;;;;;;;7.43;5.95;;;18.60;99.90;;;;;;5017673;28;20215;-82
2021/08/21 05:39:18;;;;;;;9.27;5.22;;;18.60;99.90;;;;;;5018172;28;20165;-82
2021/08/21 05:41:44;;;;;;;8.60;5.15;;;18.70;99.90;;;;;;5017289;28;20169;-84
2021/08/21 05:44:10;;;;;;;9.65;5.32;;;18.80;99.90;;;;;;5018967;28;20567;-83
2021/08/21 05:46:35;;;;;;;10.57;5.90;;;18.90;99.90;;;;;;5015419;28;20200;-82
2021/08/21 05:49:01;;;;;;;5.93;5.32;;;19.10;99.90;;;;;;5013953;28;20168;-83
2021/08/21 05:51:29;;;;;;;12.80;5.03;;;19.30;99.90;;;;;;5015209;28;20173;-82
2021/08/21 05:53:55;;;;;;;7.65;6.10;;;19.40;99.90;;;;;;5013696;28;20211;-82
2021/08/21 05:56:21;;;;;;;10.25;8.35;;;19.60;99.90;;;;;;5011934;28;20200;-82
2021/08/21 05:58:47;;;;;;;7.75;5.57;;;19.80;99.90;;;;;;5014882;28;20279;-83
2021/08/21 06:01:12;;;;;;;9.70;5.07;;;19.90;99.90;;;;;;5013940;28;20168;-82
2021/08/21 06:03:38;;;;;;;6.47;5.07;;;20.00;99.90;;;;;;5015717;28;20173;-84
2021/08/21 06:06:04;;;;;;;6.10;5.25;;;20.20;99.90;;;;;;5016339;28;20188;-84
2021/08/21 06:08:29;;;;;;;8.18;5.32;;;20.30;99.90;;;;;;5016460;28;20172;-82
2021/08/21 06:10:57;;;;;;;7.65;4.65;;;20.40;99.90;;;;;;5019045;28;20236;-81
2021/08/21 06:13:23;;;;;;;5.53;4.97;;;20.40;99.90;;;;;;5013579;28;20219;-80
2021/08/21 06:15:48;;;;;;;5.70;5.20;;;20.50;99.90;;;;;;5013364;28;20616;-79
2021/08/21 06:18:14;;;;;;;5.47;4.82;;;20.50;99.90;;;;;;5013321;28;20617;-79
2021/08/21 06:20:40;;;;;;;8.43;4.20;;;20.60;99.90;;;;;;5013158;28;20185;-79
2021/08/21 06:23:05;;;;;;;5.47;4.70;;;20.50;99.90;;;;;;5012692;28;20179;-78
2021/08/21 06:25:31;;;;;;;4.38;3.97;;;20.50;99.90;;;;;;5012863;28;20167;-78
2021/08/21 06:27:57;;;;;;;5.28;4.80;;;20.50;99.90;;;;;;5012402;28;20180;-78
2021/08/21 06:30:23;;;;;;;4.40;4.05;;;20.60;99.90;;;;;;5012517;28;20208;-78
2021/08/21 06:32:48;;;;;;;8.20;5.45;;;20.40;99.90;;;;;;5012940;28;20172;-79
2021/08/21 06:35:14;;;;;;;9.15;4.57;;;20.50;99.90;;;;;;5011044;28;20203;-79
2021/08/21 06:37:40;;;;;;;12.63;4.75;;;20.60;99.90;;;;;;5012258;28;20619;-78
2021/08/21 06:40:06;;;;;;;11.32;5.35;;;20.50;99.90;;;;;;5012059;28;20188;-79
2021/08/21 06:42:32;;;;;;;7.60;5.30;;;20.50;99.90;;;;;;5012160;28;20180;-79
2021/08/21 06:44:58;;;;;;;10.25;4.85;;;20.70;99.90;;;;;;5012289;28;20240;-79
2021/08/21 06:47:23;;;;;;;6.00;5.13;;;20.70;99.90;;;;;;5012612;28;20227;-82
2021/08/21 06:49:49;;;;;;;8.98;4.70;;;20.80;99.90;;;;;;5012216;28;20207;-82
2021/08/21 06:52:15;;;;;;;7.75;4.55;;;20.60;99.90;;;;;;5012441;28;20181;-84
2021/08/21 06:54:40;;;;;;;10.43;5.18;;;20.70;99.90;;;;;;5011257;28;20172;-82
2021/08/21 06:57:06;;;;;;;5.40;4.38;;;20.70;99.90;;;;;;5011990;28;20684;-83
2021/08/21 06:59:32;;;;;;;8.50;4.93;;;20.70;99.90;;;;;;5011008;28;20172;-80
2021/08/21 07:01:57;;;;;;;7.68;4.20;;;20.80;99.90;;;;;;5011215;28;20540;-82
2021/08/21 07:04:23;;;;;;;8.32;4.10;;;20.70;99.90;;;;;;5011090;28;20176;-81
2021/08/21 07:06:48;;;;;;;6.32;4.15;;;20.80;99.90;;;;;;5013233;28;20185;-84
2021/08/21 07:09:14;;;;;;;8.07;3.75;;;20.90;99.90;;;;;;5012332;28;20644;-81
2021/08/21 07:11:39;;;;;;;8.52;3.38;;;20.80;99.90;;;;;;5012761;28;20169;-85
2021/08/21 07:14:05;;;;;;;5.28;3.17;;;21.00;99.90;;;;;;5011745;28;20173;-83
2021/08/21 07:16:31;;;;;;;15.07;3.42;;;21.20;99.90;;;;;;5012187;28;20244;-83
2021/08/21 07:18:57;;;;;;;5.93;3.47;;;21.30;99.90;;;;;;5012799;28;20177;-82
2021/08/21 07:21:23;;;;;;;2.95;2.60;;;21.50;99.90;;;;;;5011415;28;20165;-82
2021/08/21 07:23:49;;;;;;;2.80;2.60;;;21.50;99.90;;;;;;5012451;28;20168;-83
2021/08/21 07:26:15;;;;;;;8.95;2.83;;;21.40;99.90;;;;;;5011516;28;20279;-84
2021/08/21 07:28:41;;;;;;;3.10;2.85;;;21.50;99.90;;;;;;5013788;28;20164;-85
2021/08/21 07:31:07;;;;;;;6.20;2.58;;;21.70;99.90;;;;;;5013396;28;20284;-84
2021/08/21 07:33:33;;;;;;;3.00;2.28;;;21.90;99.90;;;;;;5012989;28;20177;-82
2021/08/21 07:35:58;;;;;;;6.70;2.35;;;22.10;99.90;;;;;;5012103;28;20204;-88
2021/08/21 07:38:24;;;;;;;3.28;2.33;;;22.00;99.90;;;;;;5012427;28;20260;-80
2021/08/21 07:40:51;;;;;;;3.45;2.20;;;22.10;99.90;;;;;;5012774;28;20176;-83
2021/08/21 07:43:17;;;;;;;1.90;1.40;;;22.20;99.90;;;;;;5012864;28;20192;-80
2021/08/21 07:45:46;;;;;;;1.98;1.67;;;22.40;99.90;;;;;;5016013;28;20176;-79
2021/08/21 07:48:12;;;;;;;6.82;1.73;;;22.50;99.90;;;;;;5014896;28;20255;-79
2021/08/21 07:50:38;;;;;;;5.05;2.85;;;22.70;99.90;;;;;;5015369;28;20207;-80
2021/08/21 07:53:03;;;;;;;1.70;1.60;;;22.90;99.90;;;;;;5015557;28;20165;-81
2021/08/21 07:55:29;;;;;;;1.98;1.65;;;23.10;99.90;;;;;;5018960;28;20174;-81
2021/08/21 07:57:55;;;;;;;4.03;1.45;;;23.40;99.90;;;;;;5017421;28;20271;-80
2021/08/21 08:00:20;;;;;;;3.50;1.08;;;23.40;99.90;;;;;;5016513;28;20195;-79
2021/08/21 08:02:46;;;;;;;2.03;1.85;;;23.40;99.90;;;;;;5017855;28;20177;-78
2021/08/21 08:05:12;;;;;;;1.88;1.38;;;23.50;99.90;;;;;;5019769;28;20578;-79
2021/08/21 08:07:38;;;;;;;1.67;1.30;;;23.40;99.90;;;;;;5025746;28;20196;-80
2021/08/21 08:10:04;;;;;;;1.15;1.05;;;23.60;99.90;;;;;;5021772;28;20212;-83
2021/08/21 08:12:30;;;;;;;1.35;1.23;;;23.70;99.90;;;;;;5013405;28;20172;-80
2021/08/21 08:14:56;;;;;;;1.33;1.20;;;23.90;99.90;;;;;;5013576;28;20180;-80
2021/08/21 08:17:21;;;;;;;0.80;0.80;;;23.90;99.90;;;;;;5015020;28;20188;-81
2021/08/21 08:19:47;;;;;;;1.30;1.20;;;24.20;99.90;;;;;;5014856;28;20184;-80
2021/08/21 08:22:13;;;;;;;1.95;1.25;;;24.40;99.90;;;;;;5013363;28;20260;-84
2021/08/21 08:24:38;;;;;;;1.90;1.05;;;24.30;99.90;;;;;;5013179;28;20172;-78
2021/08/21 08:27:04;;;;;;;1.02;0.85;;;24.20;99.90;;;;;;5013151;28;20203;-79
2021/08/21 08:29:29;;;;;;;1.55;0.88;;;24.20;99.90;;;;;;5014973;28;20258;-78
2021/08/21 08:31:55;;;;;;;1.65;0.93;;;24.30;99.90;;;;;;5014822;28;20634;-78
2021/08/21 08:34:21;;;;;;;1.35;1.00;;;24.50;99.90;;;;;;5014711;28;20165;-78
2021/08/21 08:36:47;;;;;;;0.98;0.88;;;24.70;99.90;;;;;;5014944;28;20203;-78
2021/08/21 08:39:12;;;;;;;1.00;0.80;;;24.70;99.90;;;;;;5014745;28;20657;-78
2021/08/21 08:41:41;;;;;;;2.28;0.80;;;24.40;99.90;;;;;;5014926;28;20183;-78
2021/08/21 08:44:10;;;;;;;0.77;0.77;;;24.10;99.90;;;;;;5014576;28;20227;-78
2021/08/21 08:46:37;;;;;;;1.58;0.85;;;24.20;99.90;;;;;;5013170;28;20196;-78
2021/08/21 08:49:05;;;;;;;0.80;0.80;;;24.10;99.90;;;;;;5014624;28;20533;-78
2021/08/21 08:51:32;;;;;;;1.02;0.93;;;24.10;99.90;;;;;;5014367;28;20641;-78
2021/08/21 08:53:58;;;;;;;1.00;0.70;;;24.30;99.90;;;;;;5014501;28;20214;-79
2021/08/21 08:56:24;;;;;;;0.82;0.82;;;24.40;99.90;;;;;;5014328;28;20579;-78
2021/08/21 08:58:49;;;;;;;0.68;0.65;;;24.50;99.90;;;;;;5014774;28;20592;-79
2021/08/21 09:01:15;;;;;;;1.50;0.70;;;24.70;99.90;;;;;;5014375;28;20172;-79
2021/08/21 09:03:41;;;;;;;4.57;0.80;;;24.30;99.90;;;;;;5014314;28;20942;-79
2021/08/21 09:06:11;;;;;;;3.42;0.52;;;24.40;99.90;;;;;;5013838;28;20194;-81
2021/08/21 09:08:37;;;;;;;1.10;1.00;;;24.40;99.90;;;;;;5014489;28;20223;-83
2021/08/21 09:11:22;;;;;;;1.02;0.88;;;24.50;99.90;;;;;;5014642;28;20200;-83
2021/08/21 09:13:49;;;;;;;0.85;0.68;;;24.50;99.90;;;;;;5012897;28;20168;-86
2021/08/21 09:16:25;;;;;;;1.17;0.80;;;24.60;99.90;;;;;;5014632;28;20203;-83
2021/08/21 09:19:05;;;;;;;1.33;0.82;;;24.80;99.90;;;;;;5012425;28;20175;-81
2021/08/21 09:21:31;;;;;;;1.15;0.80;;;25.00;99.90;;;;;;5012407;28;20177;-82
2021/08/21 09:23:57;;;;;;;0.70;0.70;;;25.20;99.90;;;;;;5013721;28;20176;-82
2021/08/21 09:26:30;;;;;;;0.73;0.73;;;25.20;99.90;;;;;;5013394;28;20272;-84
2021/08/21 09:28:59;;;;;;;1.20;0.80;;;25.20;99.90;;;;;;5013200;28;20164;-85
2021/08/21 09:31:28;;;;;;;0.95;0.70;;;25.20;99.90;;;;;;5013017;28;20683;-83
2021/08/21 09:34:00;;;;;;;2.10;0.80;;;25.50;99.90;;;;;;5012918;28;20165;-82
2021/08/21 09:36:36;;;;;;;0.90;0.90;;;25.50;99.90;;;;;;5013451;28;20188;-82
2021/08/21 09:39:09;;;;;;;1.50;1.15;;;25.50;99.90;;;;;;5012277;28;20298;-82
2021/08/21 09:41:57;;;;;;;3.03;2.72;;;25.50;99.90;;;;;;5012244;28;20255;-82
2021/08/21 09:44:26;;;;;;;0.70;0.70;;;25.50;99.90;;;;;;5013917;28;20207;-82
2021/08/21 09:47:23;;;;;;;1.02;0.88;;;25.40;99.90;;;;;;5012964;28;20203;-82
2021/08/21 09:49:50;;;;;;;1.73;1.02;;;25.50;99.90;;;;;;5014576;28;20208;-82
2021/08/21 09:52:17;;;;;;;1.40;1.00;;;25.60;99.90;;;;;;5020261;28;20169;-82
2021/08/21 09:55:01;;;;;;;0.85;0.82;;;25.60;99.90;;;;;;5026443;28;20164;-82
2021/08/21 09:57:31;;;;;;;2.13;1.15;;;25.70;99.90;;;;;;5021627;28;20255;-80
2021/08/21 10:00:15;;;;;;;1.13;0.90;;;25.90;99.90;;;;;;5013424;28;20269;-79
2021/08/21 10:02:44;;;;;;;1.75;0.98;;;25.90;99.90;;;;;;5011789;28;20231;-80
2021/08/21 10:05:10;;;;;;;1.60;1.50;;;26.10;99.90;;;;;;5012665;28;20223;-80
2021/08/21 10:07:40;;;;;;;1.27;1.00;;;26.50;99.90;;;;;;5012925;28;20220;-80
2021/08/21 10:10:14;;;;;;;1.40;1.00;;;26.80;99.90;;;;;;5011930;28;20244;-80
2021/08/21 10:12:45;;;;;;;1.20;1.10;;;27.00;99.90;;;;;;5011997;28;20184;-80
2021/08/21 10:15:19;;;;;;;1.50;1.40;;;27.20;99.90;;;;;;5011867;28;20180;-79
2021/08/21 10:17:46;;;;;;;1.25;1.13;;;26.90;99.90;;;;;;5013097;28;20183;-80
2021/08/21 10:20:16;;;;;;;1.33;1.17;;;26.70;99.90;;;;;;5013023;28;20260;-81
2021/08/21 10:22:42;;;;;;;2.08;1.30;;;26.80;99.90;;;;;;5013327;28;20609;-80
2021/08/21 10:25:10;;;;;;;3.97;1.23;;;27.10;99.90;;;;;;5013648;28;20168;-82
2021/08/21 10:27:46;;;;;;;1.20;1.10;;;27.30;99.90;;;;;;5013589;28;20541;-82
2021/08/21 10:30:17;;;;;;;1.20;1.10;;;27.10;99.90;;;;;;5011877;28;20679;-81
2021/08/21 10:32:57;;;;;;;5.65;1.08;;;27.10;99.90;;;;;;5012161;28;20263;-81
2021/08/21 10:35:47;;;;;;;1.50;1.30;;;26.90;99.90;;;;;;5013890;28;20650;-88
2021/08/21 10:38:45;;;;;;;1.30;1.20;;;27.10;99.90;;;;;;5013062;28;20231;-84
2021/08/21 10:41:11;;;;;;;1.35;1.23;;;27.00;99.90;;;;;;4992591;28;20202;-84
2021/08/21 10:43:45;;;;;;;1.60;1.13;;;27.30;99.90;;;;;;5013071;28;20700;-83
2021/08/21 10:46:12;;;;;;;9.43;1.20;;;27.00;99.90;;;;;;5015501;28;20231;-86
2021/08/21 10:48:37;;;;;;;1.20;1.10;;;27.10;99.90;;;;;;5020966;28;20165;-83
2021/08/21 10:51:08;;;;;;;1.30;1.20;;;27.20;99.90;;;;;;5030367;28;20196;-84
2021/08/21 10:53:41;;;;;;;1.20;1.10;;;27.00;99.90;;;;;;5033483;28;20153;-84
2021/08/21 10:56:30;;;;;;;4.35;1.20;;;27.20;99.90;;;;;;5032102;28;20176;-83
2021/08/21 10:58:59;;;;;;;2.47;1.52;;;27.20;99.90;;;;;;5012846;28;20169;-83
2021/08/21 11:01:27;;;;;;;2.90;1.27;;;27.40;99.90;;;;;;5012481;28;20255;-83
2021/08/21 11:03:53;;;;;;;1.70;1.60;;;27.00;99.90;;;;;;5012449;28;20678;-84
2021/08/21 11:06:30;;;;;;;2.30;1.50;;;27.10;99.90;;;;;;5011250;28;20185;-87
2021/08/21 11:08:58;;;;;;;1.60;1.50;;;27.20;99.90;;;;;;5013143;28;20188;-87
2021/08/21 11:11:33;;;;;;;4.60;1.17;;;27.20;99.90;;;;;;5013467;28;20254;-85
2021/08/21 11:14:08;;;;;;;2.33;1.58;;;26.80;99.90;;;;;;5015512;28;20172;-85
2021/08/21 11:16:51;;;;;;;1.42;1.33;;;26.80;99.90;;;;;;5013005;28;20188;-87
2021/08/21 11:19:30;;;;;;;3.15;1.48;;;27.20;99.90;;;;;;5019155;28;20280;-84
2021/08/21 11:22:08;;;;;;;2.65;1.65;;;27.50;99.90;;;;;;5019280;28;20206;-85
2021/08/21 11:24:34;;;;;;;2.22;1.80;;;27.20;99.90;;;;;;5015239;28;20165;-84
2021/08/21 11:27:28;;;;;;;1.52;1.42;;;27.40;99.90;;;;;;5016459;28;20254;-86
2021/08/21 11:30:12;;;;;;;1.98;1.45;;;27.60;99.90;;;;;;5015173;28;20680;-84
2021/08/21 11:32:52;;;;;;;1.45;1.23;;;27.80;99.90;;;;;;5015411;28;20187;-83
2021/08/21 11:35:21;;;;;;;4.85;1.60;;;28.00;99.90;;;;;;5015666;28;20187;-85
2021/08/21 11:37:53;;;;;;;1.75;1.42;;;28.10;99.90;;;;;;5014739;28;20208;-84
2021/08/21 11:40:22;;;;;;;1.33;1.23;;;27.60;99.90;;;;;;5014871;28;20580;-83
2021/08/21 11:42:55;;;;;;;2.10;1.65;;;27.20;99.90;;;;;;5015180;28;20196;-85
2021/08/21 11:45:21;;;;;;;1.92;1.73;;;27.40;99.90;;;;;;4998964;28;20177;-86
2021/08/21 11:47:51;;;;;;;7.68;1.50;;;27.40;99.90;;;;;;5015600;28;20196;-85
2021/08/21 11:50:32;;;;;;;1.40;1.30;;;27.30;99.90;;;;;;5015364;28;20204;-86
2021/08/21 11:53:00;;;;;;;2.95;1.67;;;27.50;99.90;;;;;;5015266;28;20188;-86
2021/08/21 11:55:28;;;;;;;1.77;1.65;;;27.40;99.90;;;;;;5014731;28;20168;-84
2021/08/21 11:57:55;;;;;;;1.63;1.52;;;27.40;99.90;;;;;;5014795;28;20592;-84
2021/08/21 12:00:27;;;;;;;1.95;1.40;;;27.50;99.90;;;;;;5015177;28;20168;-84
2021/08/21 12:03:00;;;;;;;3.45;1.58;;;27.30;99.90;;;;;;5015712;28;20179;-82
2021/08/21 12:05:38;;;;;;;4.28;1.63;;;27.30;99.90;;;;;;5014834;28;20509;-84
2021/08/21 12:08:17;;;;;;;4.93;1.33;;;27.40;99.90;;;;;;5015723;28;20234;-83
2021/08/21 12:10:44;;;;;;;1.50;1.40;;;27.80;99.90;;;;;;5017510;28;20211;-83
2021/08/21 12:13:10;;;;;;;1.42;1.30;;;28.10;99.90;;;;;;5018717;28;20168;-84
2021/08/21 12:15:36;;;;;;;2.35;1.23;;;28.50;99.90;;;;;;5017073;28;20168;-84
2021/08/21 12:18:02;;;;;;;4.95;1.77;;;28.70;99.90;;;;;;5017124;28;20188;-83
2021/08/21 12:20:28;;;;;;;3.33;1.75;;;28.50;99.90;;;;;;5015936;28;20199;-85
2021/08/21 12:22:54;;;;;;;1.55;1.45;;;28.40;99.90;;;;;;5001608;28;20200;-84
2021/08/21 12:25:19;;;;;;;1.73;1.40;;;28.60;99.90;;;;;;5016074;28;20227;-85
2021/08/21 12:27:45;;;;;;;1.35;1.25;;;28.50;99.90;;;;;;5017767;28;20260;-84
2021/08/21 12:30:14;;;;;;;3.75;1.80;;;28.60;99.90;;;;;;5015437;28;20243;-84
2021/08/21 12:32:40;;;;;;;1.98;1.80;;;28.20;99.90;;;;;;5016927;28;20251;-84
2021/08/21 12:35:13;;;;;;;1.98;1.77;;;28.20;99.90;;;;;;5016398;28;20172;-84
2021/08/21 12:37:39;;;;;;;1.70;1.48;;;28.10;99.90;;;;;;5018158;28;20267;-84
2021/08/21 12:40:07;;;;;;;1.88;1.60;;;28.10;99.90;;;;;;5016669;28;20502;-84
2021/08/21 12:42:33;;;;;;;2.20;1.75;;;28.00;99.90;;;;;;5015800;28;20524;-83
2021/08/21 12:45:00;;;;;;;3.00;1.67;;;28.20;99.90;;;;;;5015707;28;20153;-85
2021/08/21 12:47:35;;;;;;;4.72;1.60;;;28.30;99.90;;;;;;5023591;28;20203;-84
2021/08/21 12:50:10;;;;;;;1.60;1.50;;;28.20;99.90;;;;;;5021429;28;20184;-83
2021/08/21 12:52:36;;;;;;;1.92;1.70;;;28.30;99.90;;;;;;5022277;28;20316;-86